sensor_id;sensor_type;location;lat;lon;timestamp;temperature;humidity
11454;DHT22;5783;55.174;61.310;2023-07-31T00:02:06;27.00;52.80
11454;DHT22;5783;55.174;61.310;2023-07-31T00:04:35;27.00;52.70
11454;DHT22;5783;55.174;61.310;2023-07-31T00:07:03;27.00;52.70
11454;DHT22;5783;55.174;61.310;2023-07-31T00:09:32;27.00;52.70
11454;DHT22;5783;55.174;61.310;2023-07-31T00:12:01;27.00;52.70
11454;DHT22;5783;55.174;61.310;2023-07-31T00:14:29;27.00;52.70
11454;DHT22;5783;55.174;61.310;2023-07-31T00:16:57;27.00;52.70
11454;DHT22;5783;55.174;61.310;2023-07-31T00:19:25;27.00;52.70
11454;DHT22;5783;55.174;61.310;2023-07-31T00:21:53;27.00;52.70
11454;DHT22;5783;55.174;61.310;2023-07-31T00:24:21;27.00;52.60
11454;DHT22;5783;55.174;61.310;2023-07-31T00:26:49;27.00;52.60
11454;DHT22;5783;55.174;61.310;2023-07-31T00:29:18;27.00;52.60
11454;DHT22;5783;55.174;61.310;2023-07-31T00:31:46;27.00;52.60
11454;DHT22;5783;55.174;61.310;2023-07-31T00:34:14;27.00;52.60
11454;DHT22;5783;55.174;61.310;2023-07-31T00:36:42;27.00;52.50
11454;DHT22;5783;55.174;61.310;2023-07-31T00:39:11;27.00;52.40
11454;DHT22;5783;55.174;61.310;2023-07-31T00:41:39;27.00;52.40
11454;DHT22;5783;55.174;61.310;2023-07-31T00:44:08;27.00;52.50
11454;DHT22;5783;55.174;61.310;2023-07-31T00:46:36;27.00;52.40
11454;DHT22;5783;55.174;61.310;2023-07-31T00:49:06;27.00;52.60
11454;DHT22;5783;55.174;61.310;2023-07-31T00:51:35;27.00;52.50
11454;DHT22;5783;55.174;61.310;2023-07-31T00:54:03;27.00;52.40
11454;DHT22;5783;55.174;61.310;2023-07-31T00:56:32;27.00;52.50
11454;DHT22;5783;55.174;61.310;2023-07-31T00:59:00;27.00;52.50
11454;DHT22;5783;55.174;61.310;2023-07-31T01:01:29;27.00;52.60
11454;DHT22;5783;55.174;61.310;2023-07-31T01:03:58;27.00;52.60
11454;DHT22;5783;55.174;61.310;2023-07-31T01:12:05;26.90;52.80
11454;DHT22;5783;55.174;61.310;2023-07-31T01:14:34;26.90;52.70
11454;DHT22;5783;55.174;61.310;2023-07-31T01:17:03;26.90;52.70
11454;DHT22;5783;55.174;61.310;2023-07-31T01:19:31;26.90;52.80
11454;DHT22;5783;55.174;61.310;2023-07-31T01:27:42;26.90;52.80
11454;DHT22;5783;55.174;61.310;2023-07-31T01:33:03;26.80;52.80
11454;DHT22;5783;55.174;61.310;2023-07-31T01:35:34;26.90;52.90
11454;DHT22;5783;55.174;61.310;2023-07-31T01:38:02;26.90;53.00
11454;DHT22;5783;55.174;61.310;2023-07-31T01:40:31;26.90;53.00
11454;DHT22;5783;55.174;61.310;2023-07-31T01:42:59;26.90;53.00
11454;DHT22;5783;55.174;61.310;2023-07-31T01:45:27;26.90;52.90
11454;DHT22;5783;55.174;61.310;2023-07-31T01:47:56;26.90;52.90
11454;DHT22;5783;55.174;61.310;2023-07-31T01:50:24;26.90;53.00
11454;DHT22;5783;55.174;61.310;2023-07-31T01:52:53;26.90;53.00
11454;DHT22;5783;55.174;61.310;2023-07-31T01:55:22;26.90;53.00
11454;DHT22;5783;55.174;61.310;2023-07-31T01:57:50;26.90;53.10
11454;DHT22;5783;55.174;61.310;2023-07-31T02:00:18;26.90;53.20
11454;DHT22;5783;55.174;61.310;2023-07-31T02:02:46;26.90;53.10
11454;DHT22;5783;55.174;61.310;2023-07-31T02:05:14;27.00;53.20
11454;DHT22;5783;55.174;61.310;2023-07-31T02:07:42;26.90;53.20
11454;DHT22;5783;55.174;61.310;2023-07-31T02:10:10;26.90;53.10
11454;DHT22;5783;55.174;61.310;2023-07-31T02:12:39;27.00;53.30
11454;DHT22;5783;55.174;61.310;2023-07-31T02:15:07;27.00;53.20
11454;DHT22;5783;55.174;61.310;2023-07-31T02:17:35;27.00;53.20
11454;DHT22;5783;55.174;61.310;2023-07-31T02:20:04;27.00;53.20
11454;DHT22;5783;55.174;61.310;2023-07-31T02:22:33;27.00;53.20
11454;DHT22;5783;55.174;61.310;2023-07-31T02:25:02;27.00;53.20
11454;DHT22;5783;55.174;61.310;2023-07-31T02:27:30;27.00;53.20
11454;DHT22;5783;55.174;61.310;2023-07-31T02:29:58;27.00;53.20
11454;DHT22;5783;55.174;61.310;2023-07-31T02:32:26;27.00;53.00
11454;DHT22;5783;55.174;61.310;2023-07-31T02:34:54;27.00;53.00
11454;DHT22;5783;55.174;61.310;2023-07-31T02:37:23;27.00;53.00
11454;DHT22;5783;55.174;61.310;2023-07-31T02:39:51;27.00;53.00
11454;DHT22;5783;55.174;61.310;2023-07-31T02:42:20;27.00;53.10
11454;DHT22;5783;55.174;61.310;2023-07-31T02:44:48;27.00;53.00
11454;DHT22;5783;55.174;61.310;2023-07-31T02:47:18;27.00;53.00
11454;DHT22;5783;55.174;61.310;2023-07-31T02:49:46;27.00;53.00
11454;DHT22;5783;55.174;61.310;2023-07-31T02:52:14;27.00;53.10
11454;DHT22;5783;55.174;61.310;2023-07-31T02:54:42;27.00;53.10
11454;DHT22;5783;55.174;61.310;2023-07-31T02:57:10;27.00;53.10
11454;DHT22;5783;55.174;61.310;2023-07-31T02:59:38;27.00;53.10
11454;DHT22;5783;55.174;61.310;2023-07-31T03:02:06;27.00;53.10
11454;DHT22;5783;55.174;61.310;2023-07-31T03:04:35;27.00;53.10
11454;DHT22;5783;55.174;61.310;2023-07-31T03:07:04;27.00;53.10
11454;DHT22;5783;55.174;61.310;2023-07-31T03:09:32;27.00;52.60
11454;DHT22;5783;55.174;61.310;2023-07-31T03:12:01;27.00;53.20
11454;DHT22;5783;55.174;61.310;2023-07-31T03:14:29;27.00;53.20
11454;DHT22;5783;55.174;61.310;2023-07-31T03:16:57;27.00;53.30
11454;DHT22;5783;55.174;61.310;2023-07-31T03:19:26;27.00;53.30
11454;DHT22;5783;55.174;61.310;2023-07-31T03:21:54;27.00;53.30
11454;DHT22;5783;55.174;61.310;2023-07-31T03:24:22;27.00;53.30
11454;DHT22;5783;55.174;61.310;2023-07-31T03:26:50;27.00;53.30
11454;DHT22;5783;55.174;61.310;2023-07-31T03:29:18;27.00;53.30
11454;DHT22;5783;55.174;61.310;2023-07-31T03:31:47;27.00;53.20
11454;DHT22;5783;55.174;61.310;2023-07-31T03:34:16;27.00;53.20
11454;DHT22;5783;55.174;61.310;2023-07-31T03:36:45;27.00;53.20
11454;DHT22;5783;55.174;61.310;2023-07-31T03:39:13;27.00;53.20
11454;DHT22;5783;55.174;61.310;2023-07-31T03:41:41;27.00;53.20
11454;DHT22;5783;55.174;61.310;2023-07-31T03:44:10;27.00;53.20
11454;DHT22;5783;55.174;61.310;2023-07-31T03:46:39;27.00;53.40
11454;DHT22;5783;55.174;61.310;2023-07-31T03:49:07;27.00;53.20
11454;DHT22;5783;55.174;61.310;2023-07-31T03:51:35;27.00;53.20
11454;DHT22;5783;55.174;61.310;2023-07-31T03:54:03;27.00;53.20
11454;DHT22;5783;55.174;61.310;2023-07-31T03:56:33;27.00;53.10
11454;DHT22;5783;55.174;61.310;2023-07-31T03:59:01;27.00;53.20
11454;DHT22;5783;55.174;61.310;2023-07-31T04:01:29;27.00;53.20
11454;DHT22;5783;55.174;61.310;2023-07-31T04:03:57;27.00;53.10
11454;DHT22;5783;55.174;61.310;2023-07-31T04:06:26;27.00;53.10
11454;DHT22;5783;55.174;61.310;2023-07-31T04:08:55;27.00;53.10
11454;DHT22;5783;55.174;61.310;2023-07-31T04:11:24;27.00;53.10
11454;DHT22;5783;55.174;61.310;2023-07-31T04:14:13;27.00;53.10
11454;DHT22;5783;55.174;61.310;2023-07-31T04:16:42;27.00;53.00
11454;DHT22;5783;55.174;61.310;2023-07-31T04:19:10;27.00;53.10
11454;DHT22;5783;55.174;61.310;2023-07-31T04:21:40;27.00;52.80
11454;DHT22;5783;55.174;61.310;2023-07-31T04:24:09;26.90;53.70
11454;DHT22;5783;55.174;61.310;2023-07-31T04:26:37;26.90;53.90
11454;DHT22;5783;55.174;61.310;2023-07-31T04:29:05;26.80;53.90
11454;DHT22;5783;55.174;61.310;2023-07-31T04:31:33;26.90;54.00
11454;DHT22;5783;55.174;61.310;2023-07-31T04:34:03;26.90;53.90
11454;DHT22;5783;55.174;61.310;2023-07-31T04:36:33;26.90;53.90
11454;DHT22;5783;55.174;61.310;2023-07-31T04:39:01;26.90;54.00
11454;DHT22;5783;55.174;61.310;2023-07-31T04:41:29;26.90;53.70
11454;DHT22;5783;55.174;61.310;2023-07-31T04:43:57;26.90;53.70
11454;DHT22;5783;55.174;61.310;2023-07-31T04:46:25;26.90;53.60
11454;DHT22;5783;55.174;61.310;2023-07-31T04:48:53;26.90;53.40
11454;DHT22;5783;55.174;61.310;2023-07-31T04:51:22;26.90;53.80
11454;DHT22;5783;55.174;61.310;2023-07-31T04:53:51;26.90;53.30
11454;DHT22;5783;55.174;61.310;2023-07-31T04:56:19;26.90;53.30
11454;DHT22;5783;55.174;61.310;2023-07-31T04:58:47;26.90;53.20
11454;DHT22;5783;55.174;61.310;2023-07-31T05:01:15;27.00;53.30
11454;DHT22;5783;55.174;61.310;2023-07-31T05:03:44;27.00;53.20
11454;DHT22;5783;55.174;61.310;2023-07-31T05:06:12;27.00;53.20
11454;DHT22;5783;55.174;61.310;2023-07-31T05:08:41;27.00;53.10
11454;DHT22;5783;55.174;61.310;2023-07-31T05:11:10;27.10;53.10
11454;DHT22;5783;55.174;61.310;2023-07-31T05:13:39;27.10;53.00
11454;DHT22;5783;55.174;61.310;2023-07-31T05:16:07;27.10;52.60
11454;DHT22;5783;55.174;61.310;2023-07-31T05:18:35;27.10;52.50
11454;DHT22;5783;55.174;61.310;2023-07-31T05:21:03;27.10;52.60
11454;DHT22;5783;55.174;61.310;2023-07-31T05:23:31;27.10;52.40
11454;DHT22;5783;55.174;61.310;2023-07-31T05:28:48;27.10;52.00
11454;DHT22;5783;55.174;61.310;2023-07-31T05:31:16;27.10;50.90
11454;DHT22;5783;55.174;61.310;2023-07-31T05:33:44;27.10;50.50
11454;DHT22;5783;55.174;61.310;2023-07-31T05:36:13;27.10;51.10
11454;DHT22;5783;55.174;61.310;2023-07-31T05:38:42;27.10;50.50
11454;DHT22;5783;55.174;61.310;2023-07-31T05:41:29;27.00;50.10
11454;DHT22;5783;55.174;61.310;2023-07-31T05:43:58;27.00;49.30
11454;DHT22;5783;55.174;61.310;2023-07-31T05:46:26;27.00;49.80
11454;DHT22;5783;55.174;61.310;2023-07-31T05:48:54;27.10;51.20
11454;DHT22;5783;55.174;61.310;2023-07-31T05:51:22;27.10;51.00
11454;DHT22;5783;55.174;61.310;2023-07-31T05:53:50;27.10;49.70
11454;DHT22;5783;55.174;61.310;2023-07-31T05:56:18;27.10;48.50
11454;DHT22;5783;55.174;61.310;2023-07-31T05:58:47;27.10;48.90
11454;DHT22;5783;55.174;61.310;2023-07-31T06:01:16;27.10;48.90
11454;DHT22;5783;55.174;61.310;2023-07-31T06:03:45;27.10;48.40
11454;DHT22;5783;55.174;61.310;2023-07-31T06:06:13;27.10;48.10
11454;DHT22;5783;55.174;61.310;2023-07-31T06:08:41;27.10;48.30
11454;DHT22;5783;55.174;61.310;2023-07-31T06:11:09;27.10;48.40
11454;DHT22;5783;55.174;61.310;2023-07-31T06:13:37;27.10;48.10
11454;DHT22;5783;55.174;61.310;2023-07-31T06:16:06;27.10;48.40
11454;DHT22;5783;55.174;61.310;2023-07-31T06:18:35;27.10;48.50
11454;DHT22;5783;55.174;61.310;2023-07-31T06:21:03;27.10;48.40
11454;DHT22;5783;55.174;61.310;2023-07-31T06:23:31;27.10;48.30
11454;DHT22;5783;55.174;61.310;2023-07-31T06:25:59;27.10;48.50
11454;DHT22;5783;55.174;61.310;2023-07-31T06:31:16;27.10;48.40
11454;DHT22;5783;55.174;61.310;2023-07-31T06:33:46;27.10;48.50
11454;DHT22;5783;55.174;61.310;2023-07-31T06:36:14;27.10;49.10
11454;DHT22;5783;55.174;61.310;2023-07-31T06:38:42;27.10;48.40
11454;DHT22;5783;55.174;61.310;2023-07-31T06:41:10;27.10;48.20
11454;DHT22;5783;55.174;61.310;2023-07-31T06:43:39;27.00;48.60
11454;DHT22;5783;55.174;61.310;2023-07-31T06:46:09;27.10;48.70
11454;DHT22;5783;55.174;61.310;2023-07-31T06:48:37;27.00;48.60
11454;DHT22;5783;55.174;61.310;2023-07-31T06:51:06;27.00;48.30
11454;DHT22;5783;55.174;61.310;2023-07-31T06:53:34;27.00;48.20
11454;DHT22;5783;55.174;61.310;2023-07-31T06:56:03;27.00;47.90
11454;DHT22;5783;55.174;61.310;2023-07-31T06:58:31;27.00;47.60
11454;DHT22;5783;55.174;61.310;2023-07-31T07:00:59;27.00;47.90
11454;DHT22;5783;55.174;61.310;2023-07-31T07:03:27;27.00;47.70
11454;DHT22;5783;55.174;61.310;2023-07-31T07:05:56;27.00;47.30
11454;DHT22;5783;55.174;61.310;2023-07-31T07:08:24;27.00;47.80
11454;DHT22;5783;55.174;61.310;2023-07-31T07:10:52;27.00;49.40
11454;DHT22;5783;55.174;61.310;2023-07-31T07:13:21;27.00;48.80
11454;DHT22;5783;55.174;61.310;2023-07-31T07:15:50;27.00;49.00
11454;DHT22;5783;55.174;61.310;2023-07-31T07:18:18;27.10;48.00
11454;DHT22;5783;55.174;61.310;2023-07-31T07:20:48;27.10;47.60
11454;DHT22;5783;55.174;61.310;2023-07-31T07:23:16;27.10;47.60
11454;DHT22;5783;55.174;61.310;2023-07-31T07:25:45;27.10;47.70
11454;DHT22;5783;55.174;61.310;2023-07-31T07:28:13;27.10;48.40
11454;DHT22;5783;55.174;61.310;2023-07-31T07:30:42;27.10;47.90
11454;DHT22;5783;55.174;61.310;2023-07-31T07:33:10;27.10;47.60
11454;DHT22;5783;55.174;61.310;2023-07-31T07:35:38;27.10;47.30
11454;DHT22;5783;55.174;61.310;2023-07-31T07:38:06;27.00;47.30
11454;DHT22;5783;55.174;61.310;2023-07-31T07:43:23;27.00;46.60
11454;DHT22;5783;55.174;61.310;2023-07-31T07:45:51;27.00;46.70
11454;DHT22;5783;55.174;61.310;2023-07-31T07:48:19;27.00;46.70
11454;DHT22;5783;55.174;61.310;2023-07-31T07:50:48;27.00;46.20
11454;DHT22;5783;55.174;61.310;2023-07-31T07:53:17;27.00;46.10
11454;DHT22;5783;55.174;61.310;2023-07-31T07:55:45;27.00;46.80
11454;DHT22;5783;55.174;61.310;2023-07-31T07:58:14;27.00;48.20
11454;DHT22;5783;55.174;61.310;2023-07-31T08:00:42;27.00;48.50
11454;DHT22;5783;55.174;61.310;2023-07-31T08:03:11;27.00;48.70
11454;DHT22;5783;55.174;61.310;2023-07-31T08:05:39;27.10;48.70
11454;DHT22;5783;55.174;61.310;2023-07-31T08:08:08;27.10;48.70
11454;DHT22;5783;55.174;61.310;2023-07-31T08:10:36;27.10;48.80
11454;DHT22;5783;55.174;61.310;2023-07-31T08:13:04;27.10;49.10
11454;DHT22;5783;55.174;61.310;2023-07-31T08:15:32;27.10;49.00
11454;DHT22;5783;55.174;61.310;2023-07-31T08:18:00;27.20;49.00
11454;DHT22;5783;55.174;61.310;2023-07-31T08:20:28;27.20;49.00
11454;DHT22;5783;55.174;61.310;2023-07-31T08:22:56;27.20;49.00
11454;DHT22;5783;55.174;61.310;2023-07-31T08:25:25;27.20;49.00
11454;DHT22;5783;55.174;61.310;2023-07-31T08:27:53;27.20;47.30
11454;DHT22;5783;55.174;61.310;2023-07-31T08:30:22;27.20;46.80
11454;DHT22;5783;55.174;61.310;2023-07-31T08:32:51;27.20;46.60
11454;DHT22;5783;55.174;61.310;2023-07-31T08:35:19;27.10;46.30
11454;DHT22;5783;55.174;61.310;2023-07-31T08:37:48;27.10;46.10
11454;DHT22;5783;55.174;61.310;2023-07-31T08:40:17;27.10;46.00
11454;DHT22;5783;55.174;61.310;2023-07-31T08:42:48;27.10;45.80
11454;DHT22;5783;55.174;61.310;2023-07-31T08:45:17;27.10;45.70
11454;DHT22;5783;55.174;61.310;2023-07-31T08:47:47;27.10;45.80
11454;DHT22;5783;55.174;61.310;2023-07-31T08:50:16;27.10;45.80
11454;DHT22;5783;55.174;61.310;2023-07-31T08:52:45;27.10;46.30
11454;DHT22;5783;55.174;61.310;2023-07-31T08:55:14;27.10;46.40
11454;DHT22;5783;55.174;61.310;2023-07-31T08:57:42;27.10;45.70
11454;DHT22;5783;55.174;61.310;2023-07-31T09:00:11;27.10;45.60
11454;DHT22;5783;55.174;61.310;2023-07-31T09:05:28;27.20;46.50
11454;DHT22;5783;55.174;61.310;2023-07-31T09:07:57;27.10;46.50
11454;DHT22;5783;55.174;61.310;2023-07-31T09:10:25;27.10;46.40
11454;DHT22;5783;55.174;61.310;2023-07-31T09:12:53;27.10;46.20
11454;DHT22;5783;55.174;61.310;2023-07-31T09:15:23;27.10;46.40
11454;DHT22;5783;55.174;61.310;2023-07-31T09:18:22;27.10;47.10
11454;DHT22;5783;55.174;61.310;2023-07-31T09:20:21;27.10;46.80
11454;DHT22;5783;55.174;61.310;2023-07-31T09:22:49;27.10;46.40
11454;DHT22;5783;55.174;61.310;2023-07-31T09:28:06;27.10;45.80
11454;DHT22;5783;55.174;61.310;2023-07-31T09:33:22;27.10;45.90
11454;DHT22;5783;55.174;61.310;2023-07-31T09:35:50;27.10;45.70
11454;DHT22;5783;55.174;61.310;2023-07-31T09:38:18;27.10;45.80
11454;DHT22;5783;55.174;61.310;2023-07-31T09:40:47;27.10;45.50
11454;DHT22;5783;55.174;61.310;2023-07-31T09:43:17;27.10;46.30
11454;DHT22;5783;55.174;61.310;2023-07-31T09:45:46;27.10;45.30
11454;DHT22;5783;55.174;61.310;2023-07-31T09:48:15;27.10;45.50
11454;DHT22;5783;55.174;61.310;2023-07-31T09:51:16;27.10;45.30
11454;DHT22;5783;55.174;61.310;2023-07-31T09:53:14;27.10;45.10
11454;DHT22;5783;55.174;61.310;2023-07-31T09:55:43;27.10;45.00
11454;DHT22;5783;55.174;61.310;2023-07-31T09:58:12;27.00;44.80
11454;DHT22;5783;55.174;61.310;2023-07-31T10:00:40;27.00;45.40
11454;DHT22;5783;55.174;61.310;2023-07-31T10:03:09;27.00;45.80
11454;DHT22;5783;55.174;61.310;2023-07-31T10:11:13;27.00;46.30
11454;DHT22;5783;55.174;61.310;2023-07-31T10:13:41;27.00;46.80
11454;DHT22;5783;55.174;61.310;2023-07-31T10:16:10;27.00;47.10
11454;DHT22;5783;55.174;61.310;2023-07-31T10:18:38;27.00;46.80
11454;DHT22;5783;55.174;61.310;2023-07-31T10:21:07;27.00;46.50
11454;DHT22;5783;55.174;61.310;2023-07-31T10:23:36;27.00;46.40
11454;DHT22;5783;55.174;61.310;2023-07-31T10:26:05;27.00;46.20
11454;DHT22;5783;55.174;61.310;2023-07-31T10:28:33;27.00;46.10
11454;DHT22;5783;55.174;61.310;2023-07-31T10:31:02;27.00;46.00
11454;DHT22;5783;55.174;61.310;2023-07-31T10:33:32;27.00;46.30
11454;DHT22;5783;55.174;61.310;2023-07-31T10:38:48;27.00;45.80
11454;DHT22;5783;55.174;61.310;2023-07-31T10:41:17;27.00;46.10
11454;DHT22;5783;55.174;61.310;2023-07-31T10:43:47;27.00;45.70
11454;DHT22;5783;55.174;61.310;2023-07-31T10:46:15;27.00;45.40
11454;DHT22;5783;55.174;61.310;2023-07-31T10:48:44;27.00;45.10
11454;DHT22;5783;55.174;61.310;2023-07-31T10:51:13;27.00;45.40
11454;DHT22;5783;55.174;61.310;2023-07-31T10:53:43;27.00;46.00
11454;DHT22;5783;55.174;61.310;2023-07-31T10:56:11;27.10;46.10
11454;DHT22;5783;55.174;61.310;2023-07-31T10:58:41;27.10;46.20
11454;DHT22;5783;55.174;61.310;2023-07-31T11:01:10;27.10;46.00
11454;DHT22;5783;55.174;61.310;2023-07-31T11:03:59;27.10;46.30
11454;DHT22;5783;55.174;61.310;2023-07-31T11:06:30;27.10;46.60
11454;DHT22;5783;55.174;61.310;2023-07-31T11:08:59;27.10;47.00
11454;DHT22;5783;55.174;61.310;2023-07-31T11:11:27;27.10;46.80
11454;DHT22;5783;55.174;61.310;2023-07-31T11:13:55;27.10;46.70
11454;DHT22;5783;55.174;61.310;2023-07-31T11:16:25;27.10;45.50
11454;DHT22;5783;55.174;61.310;2023-07-31T11:18:54;27.10;45.10
11454;DHT22;5783;55.174;61.310;2023-07-31T11:21:24;27.10;45.00
11454;DHT22;5783;55.174;61.310;2023-07-31T11:23:56;27.10;45.50
11454;DHT22;5783;55.174;61.310;2023-07-31T11:26:23;27.10;45.70
11454;DHT22;5783;55.174;61.310;2023-07-31T11:28:51;27.10;45.90
11454;DHT22;5783;55.174;61.310;2023-07-31T11:31:19;27.10;45.20
11454;DHT22;5783;55.174;61.310;2023-07-31T11:33:48;27.10;45.30
11454;DHT22;5783;55.174;61.310;2023-07-31T11:38:46;27.10;45.40
11454;DHT22;5783;55.174;61.310;2023-07-31T11:41:15;27.10;45.80
11454;DHT22;5783;55.174;61.310;2023-07-31T11:43:43;27.10;45.80
11454;DHT22;5783;55.174;61.310;2023-07-31T11:46:11;27.10;46.30
11454;DHT22;5783;55.174;61.310;2023-07-31T11:48:40;27.10;46.00
11454;DHT22;5783;55.174;61.310;2023-07-31T11:51:10;27.10;45.80
11454;DHT22;5783;55.174;61.310;2023-07-31T11:53:41;27.20;46.40
11454;DHT22;5783;55.174;61.310;2023-07-31T11:56:10;27.20;46.60
11454;DHT22;5783;55.174;61.310;2023-07-31T11:58:39;27.10;46.70
11454;DHT22;5783;55.174;61.310;2023-07-31T12:01:09;27.10;46.20
11454;DHT22;5783;55.174;61.310;2023-07-31T12:03:38;27.20;45.80
11454;DHT22;5783;55.174;61.310;2023-07-31T12:06:08;27.20;45.40
11454;DHT22;5783;55.174;61.310;2023-07-31T12:08:36;27.20;45.50
11454;DHT22;5783;55.174;61.310;2023-07-31T12:11:05;27.20;45.30
11454;DHT22;5783;55.174;61.310;2023-07-31T12:13:35;27.20;45.40
11454;DHT22;5783;55.174;61.310;2023-07-31T12:16:04;27.20;45.50
11454;DHT22;5783;55.174;61.310;2023-07-31T12:18:34;27.20;45.00
11454;DHT22;5783;55.174;61.310;2023-07-31T12:21:04;27.20;44.80
11454;DHT22;5783;55.174;61.310;2023-07-31T12:23:32;27.20;45.10
11454;DHT22;5783;55.174;61.310;2023-07-31T12:26:01;27.20;45.20
11454;DHT22;5783;55.174;61.310;2023-07-31T12:28:30;27.20;45.20
11454;DHT22;5783;55.174;61.310;2023-07-31T12:30:59;27.20;45.70
11454;DHT22;5783;55.174;61.310;2023-07-31T12:39:05;27.20;45.10
11454;DHT22;5783;55.174;61.310;2023-07-31T12:41:33;27.00;43.80
11454;DHT22;5783;55.174;61.310;2023-07-31T12:44:01;26.80;43.50
11454;DHT22;5783;55.174;61.310;2023-07-31T12:46:29;26.70;43.60
11454;DHT22;5783;55.174;61.310;2023-07-31T12:48:57;26.50;43.60
11454;DHT22;5783;55.174;61.310;2023-07-31T12:51:46;26.30;43.60
11454;DHT22;5783;55.174;61.310;2023-07-31T12:54:15;26.20;43.60
11454;DHT22;5783;55.174;61.310;2023-07-31T12:56:44;26.00;43.70
11454;DHT22;5783;55.174;61.310;2023-07-31T13:01:42;25.20;42.90
11454;DHT22;5783;55.174;61.310;2023-07-31T13:04:11;25.70;43.80
11454;DHT22;5783;55.174;61.310;2023-07-31T13:06:41;25.60;43.70
11454;DHT22;5783;55.174;61.310;2023-07-31T13:09:10;25.50;43.80
11454;DHT22;5783;55.174;61.310;2023-07-31T13:11:39;25.40;43.80
11454;DHT22;5783;55.174;61.310;2023-07-31T13:14:09;25.40;43.70
11454;DHT22;5783;55.174;61.310;2023-07-31T13:16:39;25.40;44.70
11454;DHT22;5783;55.174;61.310;2023-07-31T13:19:08;25.40;45.80
11454;DHT22;5783;55.174;61.310;2023-07-31T13:21:37;25.50;46.20
11454;DHT22;5783;55.174;61.310;2023-07-31T13:24:06;25.70;47.10
11454;DHT22;5783;55.174;61.310;2023-07-31T13:26:36;25.80;46.90
11454;DHT22;5783;55.174;61.310;2023-07-31T13:29:06;25.90;47.00
11454;DHT22;5783;55.174;61.310;2023-07-31T13:31:35;26.10;47.20
11454;DHT22;5783;55.174;61.310;2023-07-31T13:34:04;26.10;47.40
11454;DHT22;5783;55.174;61.310;2023-07-31T13:36:33;26.20;47.60
11454;DHT22;5783;55.174;61.310;2023-07-31T13:39:03;26.30;47.60
11454;DHT22;5783;55.174;61.310;2023-07-31T13:41:32;26.40;47.50
11454;DHT22;5783;55.174;61.310;2023-07-31T13:44:02;26.40;47.20
11454;DHT22;5783;55.174;61.310;2023-07-31T13:46:31;26.40;47.20
11454;DHT22;5783;55.174;61.310;2023-07-31T13:49:00;26.50;47.40
11454;DHT22;5783;55.174;61.310;2023-07-31T13:51:29;26.50;47.00
11454;DHT22;5783;55.174;61.310;2023-07-31T13:53:58;26.60;46.70
11454;DHT22;5783;55.174;61.310;2023-07-31T13:56:28;26.60;46.10
11454;DHT22;5783;55.174;61.310;2023-07-31T13:58:57;26.60;45.90
11454;DHT22;5783;55.174;61.310;2023-07-31T14:01:28;26.60;45.60
11454;DHT22;5783;55.174;61.310;2023-07-31T14:03:57;26.60;45.40
11454;DHT22;5783;55.174;61.310;2023-07-31T14:06:26;26.70;45.40
11454;DHT22;5783;55.174;61.310;2023-07-31T14:08:55;26.70;45.50
11454;DHT22;5783;55.174;61.310;2023-07-31T14:11:24;26.70;45.50
11454;DHT22;5783;55.174;61.310;2023-07-31T14:13:53;26.70;45.50
11454;DHT22;5783;55.174;61.310;2023-07-31T14:16:23;26.70;45.20
11454;DHT22;5783;55.174;61.310;2023-07-31T14:18:52;26.70;45.50
11454;DHT22;5783;55.174;61.310;2023-07-31T14:21:21;26.70;45.70
11454;DHT22;5783;55.174;61.310;2023-07-31T14:23:50;26.80;45.70
11454;DHT22;5783;55.174;61.310;2023-07-31T14:26:20;26.80;45.70
11454;DHT22;5783;55.174;61.310;2023-07-31T14:28:49;26.80;46.00
11454;DHT22;5783;55.174;61.310;2023-07-31T14:31:18;26.80;45.80
11454;DHT22;5783;55.174;61.310;2023-07-31T14:33:47;26.80;45.90
11454;DHT22;5783;55.174;61.310;2023-07-31T14:36:16;26.80;45.80
11454;DHT22;5783;55.174;61.310;2023-07-31T14:38:45;26.80;45.40
11454;DHT22;5783;55.174;61.310;2023-07-31T14:41:14;26.80;45.60
11454;DHT22;5783;55.174;61.310;2023-07-31T14:43:42;26.80;46.00
11454;DHT22;5783;55.174;61.310;2023-07-31T14:46:10;26.90;46.50
11454;DHT22;5783;55.174;61.310;2023-07-31T14:48:38;26.90;46.70
11454;DHT22;5783;55.174;61.310;2023-07-31T14:51:06;26.90;46.80
11454;DHT22;5783;55.174;61.310;2023-07-31T14:53:35;26.90;47.00
11454;DHT22;5783;55.174;61.310;2023-07-31T14:56:03;26.90;47.10
11454;DHT22;5783;55.174;61.310;2023-07-31T14:58:32;27.30;47.50
11454;DHT22;5783;55.174;61.310;2023-07-31T15:01:00;26.90;47.40
11454;DHT22;5783;55.174;61.310;2023-07-31T15:03:28;27.00;47.80
11454;DHT22;5783;55.174;61.310;2023-07-31T15:05:57;26.90;47.80
11454;DHT22;5783;55.174;61.310;2023-07-31T15:08:25;27.00;47.80
11454;DHT22;5783;55.174;61.310;2023-07-31T15:10:54;27.00;47.80
11454;DHT22;5783;55.174;61.310;2023-07-31T15:13:24;27.00;47.90
11454;DHT22;5783;55.174;61.310;2023-07-31T15:15:52;27.00;48.00
11454;DHT22;5783;55.174;61.310;2023-07-31T15:18:21;27.00;48.00
11454;DHT22;5783;55.174;61.310;2023-07-31T15:20:54;27.00;48.20
11454;DHT22;5783;55.174;61.310;2023-07-31T15:23:22;27.00;48.30
11454;DHT22;5783;55.174;61.310;2023-07-31T15:25:52;27.00;48.40
11454;DHT22;5783;55.174;61.310;2023-07-31T15:28:21;27.00;48.60
11454;DHT22;5783;55.174;61.310;2023-07-31T15:30:50;27.00;48.70
11454;DHT22;5783;55.174;61.310;2023-07-31T15:33:18;27.00;48.70
11454;DHT22;5783;55.174;61.310;2023-07-31T15:35:47;27.00;48.90
11454;DHT22;5783;55.174;61.310;2023-07-31T15:38:15;27.00;48.80
11454;DHT22;5783;55.174;61.310;2023-07-31T15:40:44;27.00;49.10
11454;DHT22;5783;55.174;61.310;2023-07-31T15:43:12;27.00;49.20
11454;DHT22;5783;55.174;61.310;2023-07-31T15:45:40;27.00;49.30
11454;DHT22;5783;55.174;61.310;2023-07-31T15:48:08;27.00;49.50
11454;DHT22;5783;55.174;61.310;2023-07-31T15:50:36;27.00;49.40
11454;DHT22;5783;55.174;61.310;2023-07-31T15:53:04;27.00;49.50
11454;DHT22;5783;55.174;61.310;2023-07-31T15:55:33;27.00;49.50
11454;DHT22;5783;55.174;61.310;2023-07-31T15:58:01;27.00;49.60
11454;DHT22;5783;55.174;61.310;2023-07-31T16:00:32;27.00;49.80
11454;DHT22;5783;55.174;61.310;2023-07-31T16:03:39;27.10;50.10
11454;DHT22;5783;55.174;61.310;2023-07-31T16:06:12;27.00;50.40
11454;DHT22;5783;55.174;61.310;2023-07-31T16:11:34;27.00;50.60
11454;DHT22;5783;55.174;61.310;2023-07-31T16:14:04;27.00;50.60
11454;DHT22;5783;55.174;61.310;2023-07-31T16:16:36;27.00;50.60
11454;DHT22;5783;55.174;61.310;2023-07-31T16:19:05;27.10;50.70
11454;DHT22;5783;55.174;61.310;2023-07-31T16:21:35;27.10;50.70
11454;DHT22;5783;55.174;61.310;2023-07-31T16:24:04;27.10;50.80
11454;DHT22;5783;55.174;61.310;2023-07-31T16:26:32;27.10;50.90
11454;DHT22;5783;55.174;61.310;2023-07-31T16:29:02;27.10;51.00
11454;DHT22;5783;55.174;61.310;2023-07-31T16:31:30;27.10;51.00
11454;DHT22;5783;55.174;61.310;2023-07-31T16:33:58;27.10;51.20